sensor_id;sensor_type;location;lat;lon;timestamp;P1;durP1;ratioP1;P2;durP2;ratioP2
38901;SDS011;24661;53.566;9.910;2023-07-30T00:01:19;6.53;;;4.30;;
38901;SDS011;24661;53.566;9.910;2023-07-30T00:03:45;6.03;;;4.03;;
38901;SDS011;24661;53.566;9.910;2023-07-30T00:06:10;5.60;;;4.23;;
38901;SDS011;24661;53.566;9.910;2023-07-30T00:08:36;4.57;;;4.10;;
38901;SDS011;24661;53.566;9.910;2023-07-30T00:11:01;6.30;;;4.03;;
38901;SDS011;24661;53.566;9.910;2023-07-30T00:13:27;5.33;;;4.33;;
38901;SDS011;24661;53.566;9.910;2023-07-30T00:15:52;8.57;;;4.53;;
38901;SDS011;24661;53.566;9.910;2023-07-30T00:18:18;5.07;;;4.50;;
38901;SDS011;24661;53.566;9.910;2023-07-30T00:20:43;4.67;;;3.80;;
38901;SDS011;24661;53.566;9.910;2023-07-30T00:23:09;4.00;;;3.60;;
38901;SDS011;24661;53.566;9.910;2023-07-30T00:25:35;4.20;;;3.80;;
38901;SDS011;24661;53.566;9.910;2023-07-30T00:28:00;4.40;;;3.97;;
38901;SDS011;24661;53.566;9.910;2023-07-30T00:30:26;6.10;;;4.03;;
38901;SDS011;24661;53.566;9.910;2023-07-30T00:32:51;5.23;;;3.67;;
38901;SDS011;24661;53.566;9.910;2023-07-30T00:35:17;4.50;;;3.93;;
38901;SDS011;24661;53.566;9.910;2023-07-30T00:37:43;5.67;;;4.17;;
38901;SDS011;24661;53.566;9.910;2023-07-30T00:40:08;8.07;;;5.57;;
38901;SDS011;24661;53.566;9.910;2023-07-30T00:42:34;5.90;;;4.53;;
38901;SDS011;24661;53.566;9.910;2023-07-30T00:45:00;7.60;;;4.97;;
38901;SDS011;24661;53.566;9.910;2023-07-30T00:47:26;7.00;;;5.00;;
38901;SDS011;24661;53.566;9.910;2023-07-30T00:49:52;5.13;;;4.63;;
38901;SDS011;24661;53.566;9.910;2023-07-30T00:52:18;6.37;;;4.33;;
38901;SDS011;24661;53.566;9.910;2023-07-30T00:54:46;7.03;;;4.60;;
38901;SDS011;24661;53.566;9.910;2023-07-30T00:57:13;5.53;;;4.60;;
38901;SDS011;24661;53.566;9.910;2023-07-30T00:59:39;5.90;;;3.70;;
38901;SDS011;24661;53.566;9.910;2023-07-30T01:02:05;6.17;;;3.90;;
38901;SDS011;24661;53.566;9.910;2023-07-30T01:04:31;6.90;;;4.03;;
38901;SDS011;24661;53.566;9.910;2023-07-30T01:06:57;5.57;;;4.63;;
38901;SDS011;24661;53.566;9.910;2023-07-30T01:09:22;4.77;;;4.23;;
38901;SDS011;24661;53.566;9.910;2023-07-30T01:11:48;5.97;;;4.90;;
38901;SDS011;24661;53.566;9.910;2023-07-30T01:14:14;5.47;;;4.80;;
38901;SDS011;24661;53.566;9.910;2023-07-30T01:16:41;6.20;;;5.17;;
38901;SDS011;24661;53.566;9.910;2023-07-30T01:19:06;5.67;;;5.03;;
38901;SDS011;24661;53.566;9.910;2023-07-30T01:21:35;5.57;;;4.70;;
38901;SDS011;24661;53.566;9.910;2023-07-30T01:24:02;5.93;;;4.90;;
38901;SDS011;24661;53.566;9.910;2023-07-30T01:26:39;6.27;;;5.50;;
38901;SDS011;24661;53.566;9.910;2023-07-30T01:29:22;6.57;;;5.30;;
38901;SDS011;24661;53.566;9.910;2023-07-30T01:31:54;5.93;;;5.33;;
38901;SDS011;24661;53.566;9.910;2023-07-30T01:34:22;10.33;;;6.50;;
38901;SDS011;24661;53.566;9.910;2023-07-30T01:36:51;6.27;;;5.37;;
38901;SDS011;24661;53.566;9.910;2023-07-30T01:39:18;7.03;;;5.50;;
38901;SDS011;24661;53.566;9.910;2023-07-30T01:41:44;9.83;;;5.73;;
38901;SDS011;24661;53.566;9.910;2023-07-30T01:44:10;7.00;;;5.77;;
38901;SDS011;24661;53.566;9.910;2023-07-30T01:46:35;7.23;;;5.30;;
38901;SDS011;24661;53.566;9.910;2023-07-30T01:49:01;10.20;;;6.53;;
38901;SDS011;24661;53.566;9.910;2023-07-30T01:51:27;8.53;;;6.90;;
38901;SDS011;24661;53.566;9.910;2023-07-30T01:53:52;6.97;;;6.03;;
38901;SDS011;24661;53.566;9.910;2023-07-30T01:56:18;8.03;;;6.80;;
38901;SDS011;24661;53.566;9.910;2023-07-30T01:58:43;8.23;;;6.30;;
38901;SDS011;24661;53.566;9.910;2023-07-30T02:01:09;8.23;;;6.53;;
38901;SDS011;24661;53.566;9.910;2023-07-30T02:03:34;7.23;;;6.10;;
38901;SDS011;24661;53.566;9.910;2023-07-30T02:06:00;8.67;;;6.43;;
38901;SDS011;24661;53.566;9.910;2023-07-30T02:08:25;10.67;;;6.93;;
38901;SDS011;24661;53.566;9.910;2023-07-30T02:10:55;11.23;;;7.70;;
38901;SDS011;24661;53.566;9.910;2023-07-30T02:13:21;14.07;;;7.40;;
38901;SDS011;24661;53.566;9.910;2023-07-30T02:15:47;7.20;;;6.50;;
38901;SDS011;24661;53.566;9.910;2023-07-30T02:18:12;14.70;;;7.47;;
38901;SDS011;24661;53.566;9.910;2023-07-30T02:20:38;9.37;;;7.47;;
38901;SDS011;24661;53.566;9.910;2023-07-30T02:23:03;8.47;;;6.73;;
38901;SDS011;24661;53.566;9.910;2023-07-30T02:25:29;13.30;;;8.07;;
38901;SDS011;24661;53.566;9.910;2023-07-30T02:27:54;11.40;;;8.43;;
38901;SDS011;24661;53.566;9.910;2023-07-30T02:30:21;12.57;;;7.67;;
38901;SDS011;24661;53.566;9.910;2023-07-30T02:32:47;13.43;;;9.13;;
38901;SDS011;24661;53.566;9.910;2023-07-30T02:35:12;11.17;;;8.40;;
38901;SDS011;24661;53.566;9.910;2023-07-30T02:37:38;13.07;;;9.07;;
38901;SDS011;24661;53.566;9.910;2023-07-30T02:40:03;12.10;;;9.13;;
38901;SDS011;24661;53.566;9.910;2023-07-30T02:42:30;14.63;;;9.90;;
38901;SDS011;24661;53.566;9.910;2023-07-30T02:44:56;10.87;;;8.93;;
38901;SDS011;24661;53.566;9.910;2023-07-30T02:47:21;12.47;;;9.40;;
38901;SDS011;24661;53.566;9.910;2023-07-30T02:49:47;12.40;;;10.07;;
38901;SDS011;24661;53.566;9.910;2023-07-30T02:52:12;11.40;;;8.53;;
38901;SDS011;24661;53.566;9.910;2023-07-30T02:54:38;17.90;;;11.23;;
38901;SDS011;24661;53.566;9.910;2023-07-30T02:57:04;13.83;;;11.07;;
38901;SDS011;24661;53.566;9.910;2023-07-30T02:59:29;15.83;;;10.87;;
38901;SDS011;24661;53.566;9.910;2023-07-30T03:01:55;16.17;;;11.07;;
38901;SDS011;24661;53.566;9.910;2023-07-30T03:04:20;16.83;;;10.27;;
38901;SDS011;24661;53.566;9.910;2023-07-30T03:06:46;18.27;;;11.87;;
38901;SDS011;24661;53.566;9.910;2023-07-30T03:09:11;16.40;;;10.93;;
38901;SDS011;24661;53.566;9.910;2023-07-30T03:11:37;16.67;;;11.43;;
38901;SDS011;24661;53.566;9.910;2023-07-30T03:14:02;16.63;;;10.97;;
38901;SDS011;24661;53.566;9.910;2023-07-30T03:16:28;15.47;;;10.87;;
38901;SDS011;24661;53.566;9.910;2023-07-30T03:18:53;16.10;;;10.73;;
38901;SDS011;24661;53.566;9.910;2023-07-30T03:21:19;13.10;;;10.47;;
38901;SDS011;24661;53.566;9.910;2023-07-30T03:23:44;17.20;;;10.20;;
38901;SDS011;24661;53.566;9.910;2023-07-30T03:26:10;16.27;;;11.20;;
38901;SDS011;24661;53.566;9.910;2023-07-30T03:28:36;19.70;;;12.40;;
38901;SDS011;24661;53.566;9.910;2023-07-30T03:31:01;18.27;;;10.73;;
38901;SDS011;24661;53.566;9.910;2023-07-30T03:33:27;16.63;;;11.43;;
38901;SDS011;24661;53.566;9.910;2023-07-30T03:35:52;12.83;;;10.77;;
38901;SDS011;24661;53.566;9.910;2023-07-30T03:38:18;18.87;;;12.20;;
38901;SDS011;24661;53.566;9.910;2023-07-30T03:40:43;15.60;;;10.63;;
38901;SDS011;24661;53.566;9.910;2023-07-30T03:43:09;15.20;;;10.40;;
38901;SDS011;24661;53.566;9.910;2023-07-30T03:45:34;18.10;;;12.13;;
38901;SDS011;24661;53.566;9.910;2023-07-30T03:48:00;13.73;;;10.63;;
38901;SDS011;24661;53.566;9.910;2023-07-30T03:50:26;20.00;;;11.37;;
38901;SDS011;24661;53.566;9.910;2023-07-30T03:52:51;17.03;;;11.70;;
38901;SDS011;24661;53.566;9.910;2023-07-30T03:55:17;18.97;;;11.77;;
38901;SDS011;24661;53.566;9.910;2023-07-30T03:57:42;16.73;;;11.63;;
38901;SDS011;24661;53.566;9.910;2023-07-30T04:00:08;18.77;;;11.20;;
38901;SDS011;24661;53.566;9.910;2023-07-30T04:02:34;17.33;;;11.97;;
38901;SDS011;24661;53.566;9.910;2023-07-30T04:04:59;19.87;;;10.20;;
38901;SDS011;24661;53.566;9.910;2023-07-30T04:07:25;17.37;;;11.93;;
38901;SDS011;24661;53.566;9.910;2023-07-30T04:09:50;16.70;;;11.63;;
38901;SDS011;24661;53.566;9.910;2023-07-30T04:12:16;18.20;;;10.53;;
38901;SDS011;24661;53.566;9.910;2023-07-30T04:14:42;17.80;;;11.30;;
38901;SDS011;24661;53.566;9.910;2023-07-30T04:17:08;19.67;;;12.10;;
38901;SDS011;24661;53.566;9.910;2023-07-30T04:19:33;17.17;;;11.13;;
38901;SDS011;24661;53.566;9.910;2023-07-30T04:21:59;20.40;;;12.00;;
38901;SDS011;24661;53.566;9.910;2023-07-30T04:24:24;19.27;;;11.23;;
38901;SDS011;24661;53.566;9.910;2023-07-30T04:26:51;16.93;;;11.00;;
38901;SDS011;24661;53.566;9.910;2023-07-30T04:29:16;16.03;;;11.10;;
38901;SDS011;24661;53.566;9.910;2023-07-30T04:31:42;20.40;;;12.77;;
38901;SDS011;24661;53.566;9.910;2023-07-30T04:34:07;17.60;;;11.73;;
38901;SDS011;24661;53.566;9.910;2023-07-30T04:36:33;15.10;;;10.70;;
38901;SDS011;24661;53.566;9.910;2023-07-30T04:38:58;17.50;;;10.73;;
38901;SDS011;24661;53.566;9.910;2023-07-30T04:41:24;18.93;;;11.03;;
38901;SDS011;24661;53.566;9.910;2023-07-30T04:43:49;19.77;;;11.43;;
38901;SDS011;24661;53.566;9.910;2023-07-30T04:46:15;15.93;;;10.87;;
38901;SDS011;24661;53.566;9.910;2023-07-30T04:48:40;18.33;;;10.07;;
38901;SDS011;24661;53.566;9.910;2023-07-30T04:51:06;19.30;;;11.00;;
38901;SDS011;24661;53.566;9.910;2023-07-30T04:53:31;13.50;;;10.00;;
38901;SDS011;24661;53.566;9.910;2023-07-30T04:55:57;17.00;;;10.03;;
38901;SDS011;24661;53.566;9.910;2023-07-30T04:58:23;22.60;;;10.73;;
38901;SDS011;24661;53.566;9.910;2023-07-30T05:00:49;15.30;;;10.47;;
38901;SDS011;24661;53.566;9.910;2023-07-30T05:03:15;13.73;;;9.03;;
38901;SDS011;24661;53.566;9.910;2023-07-30T05:05:41;16.67;;;9.43;;
38901;SDS011;24661;53.566;9.910;2023-07-30T05:08:07;21.23;;;9.60;;
38901;SDS011;24661;53.566;9.910;2023-07-30T05:10:33;17.80;;;9.23;;
38901;SDS011;24661;53.566;9.910;2023-07-30T05:12:58;20.87;;;9.47;;
38901;SDS011;24661;53.566;9.910;2023-07-30T05:15:25;15.30;;;8.97;;
38901;SDS011;24661;53.566;9.910;2023-07-30T05:17:51;19.87;;;8.83;;
38901;SDS011;24661;53.566;9.910;2023-07-30T05:20:17;16.90;;;9.23;;
38901;SDS011;24661;53.566;9.910;2023-07-30T05:22:42;17.80;;;9.87;;
38901;SDS011;24661;53.566;9.910;2023-07-30T05:25:08;15.73;;;8.50;;
38901;SDS011;24661;53.566;9.910;2023-07-30T05:27:34;20.27;;;9.30;;
38901;SDS011;24661;53.566;9.910;2023-07-30T05:30:00;13.27;;;9.10;;
38901;SDS011;24661;53.566;9.910;2023-07-30T05:32:26;15.73;;;9.00;;
38901;SDS011;24661;53.566;9.910;2023-07-30T05:34:51;15.93;;;9.53;;
38901;SDS011;24661;53.566;9.910;2023-07-30T05:37:17;20.23;;;8.83;;
38901;SDS011;24661;53.566;9.910;2023-07-30T05:39:42;18.00;;;9.37;;
38901;SDS011;24661;53.566;9.910;2023-07-30T05:42:08;13.03;;;8.97;;
38901;SDS011;24661;53.566;9.910;2023-07-30T05:44:33;18.40;;;9.70;;
38901;SDS011;24661;53.566;9.910;2023-07-30T05:46:59;14.73;;;7.93;;
38901;SDS011;24661;53.566;9.910;2023-07-30T05:49:24;12.43;;;9.37;;
38901;SDS011;24661;53.566;9.910;2023-07-30T05:51:50;15.43;;;8.23;;
38901;SDS011;24661;53.566;9.910;2023-07-30T05:54:16;18.00;;;9.00;;
38901;SDS011;24661;53.566;9.910;2023-07-30T05:56:42;18.90;;;8.43;;
38901;SDS011;24661;53.566;9.910;2023-07-30T05:59:08;13.83;;;8.47;;
38901;SDS011;24661;53.566;9.910;2023-07-30T06:01:34;14.93;;;8.77;;
38901;SDS011;24661;53.566;9.910;2023-07-30T06:03:59;15.63;;;8.70;;
38901;SDS011;24661;53.566;9.910;2023-07-30T06:06:25;15.50;;;8.57;;
38901;SDS011;24661;53.566;9.910;2023-07-30T06:08:53;16.47;;;9.20;;
38901;SDS011;24661;53.566;9.910;2023-07-30T06:11:19;12.60;;;7.53;;
38901;SDS011;24661;53.566;9.910;2023-07-30T06:13:45;14.33;;;7.80;;
38901;SDS011;24661;53.566;9.910;2023-07-30T06:16:10;14.70;;;8.57;;
38901;SDS011;24661;53.566;9.910;2023-07-30T06:18:36;16.83;;;8.87;;
38901;SDS011;24661;53.566;9.910;2023-07-30T06:21:02;15.87;;;8.27;;
38901;SDS011;24661;53.566;9.910;2023-07-30T06:23:27;14.33;;;8.10;;
38901;SDS011;24661;53.566;9.910;2023-07-30T06:25:53;19.60;;;8.40;;
38901;SDS011;24661;53.566;9.910;2023-07-30T06:28:18;17.10;;;8.77;;
38901;SDS011;24661;53.566;9.910;2023-07-30T06:30:44;20.63;;;10.03;;
38901;SDS011;24661;53.566;9.910;2023-07-30T06:33:09;23.03;;;10.17;;
38901;SDS011;24661;53.566;9.910;2023-07-30T06:35:35;21.43;;;9.73;;
38901;SDS011;24661;53.566;9.910;2023-07-30T06:38:01;20.87;;;9.77;;
38901;SDS011;24661;53.566;9.910;2023-07-30T06:40:26;19.67;;;8.80;;
38901;SDS011;24661;53.566;9.910;2023-07-30T06:42:52;22.40;;;10.47;;
38901;SDS011;24661;53.566;9.910;2023-07-30T06:45:18;21.00;;;9.27;;
38901;SDS011;24661;53.566;9.910;2023-07-30T06:47:43;17.57;;;9.70;;
38901;SDS011;24661;53.566;9.910;2023-07-30T06:50:09;19.40;;;9.50;;
38901;SDS011;24661;53.566;9.910;2023-07-30T06:52:35;18.67;;;8.97;;
38901;SDS011;24661;53.566;9.910;2023-07-30T06:55:01;21.13;;;9.07;;
38901;SDS011;24661;53.566;9.910;2023-07-30T06:57:28;17.33;;;8.57;;
38901;SDS011;24661;53.566;9.910;2023-07-30T06:59:54;32.77;;;10.07;;
38901;SDS011;24661;53.566;9.910;2023-07-30T07:02:19;20.87;;;8.97;;
38901;SDS011;24661;53.566;9.910;2023-07-30T07:04:45;21.97;;;9.87;;
38901;SDS011;24661;53.566;9.910;2023-07-30T07:07:11;19.27;;;8.73;;
38901;SDS011;24661;53.566;9.910;2023-07-30T07:09:36;20.20;;;8.80;;
38901;SDS011;24661;53.566;9.910;2023-07-30T07:12:02;25.50;;;9.87;;
38901;SDS011;24661;53.566;9.910;2023-07-30T07:14:28;18.83;;;8.17;;
38901;SDS011;24661;53.566;9.910;2023-07-30T07:16:54;21.10;;;8.73;;
38901;SDS011;24661;53.566;9.910;2023-07-30T07:19:21;14.97;;;8.73;;
38901;SDS011;24661;53.566;9.910;2023-07-30T07:21:47;24.07;;;9.17;;
38901;SDS011;24661;53.566;9.910;2023-07-30T07:24:12;16.50;;;8.13;;
38901;SDS011;24661;53.566;9.910;2023-07-30T07:26:40;21.50;;;8.50;;
38901;SDS011;24661;53.566;9.910;2023-07-30T07:29:06;18.40;;;7.60;;
38901;SDS011;24661;53.566;9.910;2023-07-30T07:31:31;18.20;;;7.67;;
38901;SDS011;24661;53.566;9.910;2023-07-30T07:33:57;15.70;;;7.07;;
38901;SDS011;24661;53.566;9.910;2023-07-30T07:36:23;25.93;;;8.07;;
38901;SDS011;24661;53.566;9.910;2023-07-30T07:38:48;27.27;;;8.63;;
38901;SDS011;24661;53.566;9.910;2023-07-30T07:41:14;19.03;;;7.73;;
38901;SDS011;24661;53.566;9.910;2023-07-30T07:43:43;15.33;;;7.27;;
38901;SDS011;24661;53.566;9.910;2023-07-30T07:46:10;16.30;;;7.07;;
38901;SDS011;24661;53.566;9.910;2023-07-30T07:48:39;20.87;;;6.83;;
38901;SDS011;24661;53.566;9.910;2023-07-30T07:51:06;20.87;;;6.87;;
38901;SDS011;24661;53.566;9.910;2023-07-30T07:53:31;13.00;;;7.63;;
38901;SDS011;24661;53.566;9.910;2023-07-30T07:55:57;20.77;;;5.83;;
38901;SDS011;24661;53.566;9.910;2023-07-30T07:58:22;21.73;;;7.83;;
38901;SDS011;24661;53.566;9.910;2023-07-30T08:00:48;19.43;;;7.37;;
38901;SDS011;24661;53.566;9.910;2023-07-30T08:03:13;23.30;;;7.10;;
38901;SDS011;24661;53.566;9.910;2023-07-30T08:05:39;20.10;;;8.50;;
38901;SDS011;24661;53.566;9.910;2023-07-30T08:08:05;16.93;;;7.10;;
38901;SDS011;24661;53.566;9.910;2023-07-30T08:10:30;16.30;;;6.80;;
38901;SDS011;24661;53.566;9.910;2023-07-30T08:12:56;16.83;;;7.27;;
38901;SDS011;24661;53.566;9.910;2023-07-30T08:15:21;15.63;;;8.33;;
38901;SDS011;24661;53.566;9.910;2023-07-30T08:17:47;19.47;;;8.13;;
38901;SDS011;24661;53.566;9.910;2023-07-30T08:20:12;20.80;;;7.57;;
38901;SDS011;24661;53.566;9.910;2023-07-30T08:22:38;14.37;;;7.33;;
38901;SDS011;24661;53.566;9.910;2023-07-30T08:25:03;16.47;;;6.90;;
38901;SDS011;24661;53.566;9.910;2023-07-30T08:27:30;13.53;;;6.37;;
38901;SDS011;24661;53.566;9.910;2023-07-30T08:29:55;11.40;;;5.80;;
38901;SDS011;24661;53.566;9.910;2023-07-30T08:32:21;16.80;;;7.70;;
38901;SDS011;24661;53.566;9.910;2023-07-30T08:34:46;15.33;;;5.40;;
38901;SDS011;24661;53.566;9.910;2023-07-30T08:37:12;14.57;;;6.40;;
38901;SDS011;24661;53.566;9.910;2023-07-30T08:39:37;19.23;;;5.20;;
38901;SDS011;24661;53.566;9.910;2023-07-30T08:42:03;14.37;;;4.77;;
38901;SDS011;24661;53.566;9.910;2023-07-30T08:44:29;18.80;;;4.70;;
38901;SDS011;24661;53.566;9.910;2023-07-30T08:46:54;13.40;;;4.30;;
38901;SDS011;24661;53.566;9.910;2023-07-30T08:49:20;18.57;;;4.90;;
38901;SDS011;24661;53.566;9.910;2023-07-30T08:51:45;9.93;;;3.57;;
38901;SDS011;24661;53.566;9.910;2023-07-30T08:54:16;15.60;;;5.33;;
38901;SDS011;24661;53.566;9.910;2023-07-30T08:56:42;20.10;;;4.73;;
38901;SDS011;24661;53.566;9.910;2023-07-30T08:59:08;11.17;;;4.37;;
38901;SDS011;24661;53.566;9.910;2023-07-30T09:01:37;10.03;;;3.73;;
38901;SDS011;24661;53.566;9.910;2023-07-30T09:04:04;14.03;;;4.87;;
38901;SDS011;24661;53.566;9.910;2023-07-30T09:06:32;12.27;;;3.97;;
38901;SDS011;24661;53.566;9.910;2023-07-30T09:08:57;17.27;;;4.67;;
38901;SDS011;24661;53.566;9.910;2023-07-30T09:11:26;15.67;;;4.63;;
38901;SDS011;24661;53.566;9.910;2023-07-30T09:13:53;7.80;;;4.03;;
38901;SDS011;24661;53.566;9.910;2023-07-30T09:16:24;17.10;;;4.80;;
38901;SDS011;24661;53.566;9.910;2023-07-30T09:18:50;18.90;;;4.53;;
38901;SDS011;24661;53.566;9.910;2023-07-30T09:21:18;12.23;;;3.60;;
38901;SDS011;24661;53.566;9.910;2023-07-30T09:23:44;10.23;;;3.37;;
38901;SDS011;24661;53.566;9.910;2023-07-30T09:26:11;17.37;;;4.13;;
38901;SDS011;24661;53.566;9.910;2023-07-30T09:28:37;13.03;;;3.50;;
38901;SDS011;24661;53.566;9.910;2023-07-30T09:31:04;18.73;;;4.43;;
38901;SDS011;24661;53.566;9.910;2023-07-30T09:33:33;12.37;;;3.77;;
38901;SDS011;24661;53.566;9.910;2023-07-30T09:36:02;17.97;;;3.63;;
38901;SDS011;24661;53.566;9.910;2023-07-30T09:38:29;10.70;;;3.90;;
38901;SDS011;24661;53.566;9.910;2023-07-30T09:41:01;9.23;;;3.57;;
38901;SDS011;24661;53.566;9.910;2023-07-30T09:43:33;14.90;;;4.70;;
38901;SDS011;24661;53.566;9.910;2023-07-30T09:46:03;11.63;;;4.30;;
38901;SDS011;24661;53.566;9.910;2023-07-30T09:48:34;11.63;;;3.57;;
38901;SDS011;24661;53.566;9.910;2023-07-30T09:51:01;13.93;;;4.90;;
38901;SDS011;24661;53.566;9.910;2023-07-30T09:53:31;14.47;;;3.60;;
38901;SDS011;24661;53.566;9.910;2023-07-30T09:56:01;15.27;;;3.63;;
38901;SDS011;24661;53.566;9.910;2023-07-30T09:58:28;14.83;;;4.40;;
38901;SDS011;24661;53.566;9.910;2023-07-30T10:00:55;14.20;;;4.00;;
38901;SDS011;24661;53.566;9.910;2023-07-30T10:03:25;18.83;;;4.43;;
38901;SDS011;24661;53.566;9.910;2023-07-30T10:05:53;17.37;;;4.30;;
38901;SDS011;24661;53.566;9.910;2023-07-30T10:08:25;11.27;;;3.53;;
38901;SDS011;24661;53.566;9.910;2023-07-30T10:10:53;9.27;;;3.40;;
38901;SDS011;24661;53.566;9.910;2023-07-30T10:13:21;14.70;;;4.33;;
38901;SDS011;24661;53.566;9.910;2023-07-30T10:15:48;11.80;;;4.87;;
38901;SDS011;24661;53.566;9.910;2023-07-30T10:18:13;11.83;;;4.13;;
38901;SDS011;24661;53.566;9.910;2023-07-30T10:20:40;7.80;;;3.97;;
38901;SDS011;24661;53.566;9.910;2023-07-30T10:23:10;10.63;;;3.30;;
38901;SDS011;24661;53.566;9.910;2023-07-30T10:25:43;11.17;;;3.97;;
38901;SDS011;24661;53.566;9.910;2023-07-30T10:31:11;9.97;;;4.03;;
38901;SDS011;24661;53.566;9.910;2023-07-30T10:33:51;10.47;;;3.43;;
38901;SDS011;24661;53.566;9.910;2023-07-30T10:36:42;14.13;;;4.10;;
38901;SDS011;24661;53.566;9.910;2023-07-30T10:41:51;12.20;;;3.53;;
38901;SDS011;24661;53.566;9.910;2023-07-30T10:44:21;13.10;;;4.07;;
38901;SDS011;24661;53.566;9.910;2023-07-30T10:46:49;7.83;;;3.20;;
38901;SDS011;24661;53.566;9.910;2023-07-30T10:49:15;8.63;;;3.00;;
38901;SDS011;24661;53.566;9.910;2023-07-30T10:51:40;11.73;;;3.10;;
38901;SDS011;24661;53.566;9.910;2023-07-30T10:54:06;7.17;;;2.47;;
38901;SDS011;24661;53.566;9.910;2023-07-30T10:56:35;8.07;;;2.70;;
38901;SDS011;24661;53.566;9.910;2023-07-30T10:59:06;6.90;;;2.80;;
38901;SDS011;24661;53.566;9.910;2023-07-30T11:01:35;8.83;;;3.00;;
38901;SDS011;24661;53.566;9.910;2023-07-30T11:06:36;10.87;;;3.27;;
38901;SDS011;24661;53.566;9.910;2023-07-30T11:09:03;9.03;;;3.03;;
38901;SDS011;24661;53.566;9.910;2023-07-30T11:11:28;9.00;;;2.67;;
38901;SDS011;24661;53.566;9.910;2023-07-30T11:13:54;8.53;;;3.03;;
38901;SDS011;24661;53.566;9.910;2023-07-30T11:16:20;10.60;;;3.27;;
38901;SDS011;24661;53.566;9.910;2023-07-30T11:18:45;8.83;;;2.23;;
38901;SDS011;24661;53.566;9.910;2023-07-30T11:21:16;9.70;;;3.20;;
38901;SDS011;24661;53.566;9.910;2023-07-30T11:23:42;9.03;;;2.23;;
38901;SDS011;24661;53.566;9.910;2023-07-30T11:26:13;8.63;;;2.57;;
38901;SDS011;24661;53.566;9.910;2023-07-30T11:28:44;7.60;;;2.30;;
38901;SDS011;24661;53.566;9.910;2023-07-30T11:31:11;7.37;;;2.70;;
38901;SDS011;24661;53.566;9.910;2023-07-30T11:33:45;6.40;;;2.60;;
38901;SDS011;24661;53.566;9.910;2023-07-30T11:36:14;10.83;;;3.13;;
38901;SDS011;24661;53.566;9.910;2023-07-30T11:38:41;7.77;;;2.50;;
38901;SDS011;24661;53.566;9.910;2023-07-30T11:41:07;8.40;;;2.50;;
38901;SDS011;24661;53.566;9.910;2023-07-30T11:43:38;5.90;;;2.37;;
38901;SDS011;24661;53.566;9.910;2023-07-30T11:46:12;8.23;;;2.27;;
38901;SDS011;24661;53.566;9.910;2023-07-30T11:48:43;9.70;;;2.73;;
38901;SDS011;24661;53.566;9.910;2023-07-30T11:51:26;7.43;;;2.33;;
38901;SDS011;24661;53.566;9.910;2023-07-30T11:53:53;5.00;;;1.80;;
38901;SDS011;24661;53.566;9.910;2023-07-30T11:56:24;5.13;;;2.10;;
38901;SDS011;24661;53.566;9.910;2023-07-30T11:58:55;8.30;;;1.90;;
38901;SDS011;24661;53.566;9.910;2023-07-30T12:01:22;8.73;;;2.50;;
38901;SDS011;24661;53.566;9.910;2023-07-30T12:03:49;7.10;;;2.40;;
38901;SDS011;24661;53.566;9.910;2023-07-30T12:06:14;8.57;;;2.47;;
38901;SDS011;24661;53.566;9.910;2023-07-30T12:08:40;6.83;;;2.50;;
38901;SDS011;24661;53.566;9.910;2023-07-30T12:11:06;7.33;;;2.60;;
38901;SDS011;24661;53.566;9.910;2023-07-30T12:13:34;7.07;;;2.03;;
38901;SDS011;24661;53.566;9.910;2023-07-30T12:16:06;5.37;;;2.33;;
38901;SDS011;24661;53.566;9.910;2023-07-30T12:18:32;6.73;;;2.20;;
38901;SDS011;24661;53.566;9.910;2023-07-30T12:20:58;7.93;;;2.67;;
38901;SDS011;24661;53.566;9.910;2023-07-30T12:23:23;11.73;;;2.73;;
38901;SDS011;24661;53.566;9.910;2023-07-30T12:25:50;5.60;;;2.07;;
38901;SDS011;24661;53.566;9.910;2023-07-30T12:28:16;9.60;;;2.57;;
38901;SDS011;24661;53.566;9.910;2023-07-30T12:30:41;7.27;;;2.17;;
38901;SDS011;24661;53.566;9.910;2023-07-30T12:33:07;9.77;;;2.50;;
38901;SDS011;24661;53.566;9.910;2023-07-30T12:35:32;5.07;;;2.53;;
38901;SDS011;24661;53.566;9.910;2023-07-30T12:37:58;8.83;;;2.30;;
38901;SDS011;24661;53.566;9.910;2023-07-30T12:40:25;8.63;;;2.70;;
38901;SDS011;24661;53.566;9.910;2023-07-30T12:42:51;5.73;;;1.93;;
38901;SDS011;24661;53.566;9.910;2023-07-30T12:45:17;6.33;;;2.07;;
38901;SDS011;24661;53.566;9.910;2023-07-30T12:47:43;4.60;;;2.43;;
38901;SDS011;24661;53.566;9.910;2023-07-30T12:50:10;5.87;;;2.33;;
38901;SDS011;24661;53.566;9.910;2023-07-30T12:52:35;10.50;;;2.60;;
38901;SDS011;24661;53.566;9.910;2023-07-30T12:55:01;8.13;;;2.40;;
38901;SDS011;24661;53.566;9.910;2023-07-30T12:57:29;4.83;;;2.30;;
38901;SDS011;24661;53.566;9.910;2023-07-30T12:59:55;6.23;;;2.57;;
38901;SDS011;24661;53.566;9.910;2023-07-30T13:02:21;9.07;;;3.17;;
38901;SDS011;24661;53.566;9.910;2023-07-30T13:04:46;5.87;;;2.07;;
38901;SDS011;24661;53.566;9.910;2023-07-30T13:07:12;11.20;;;2.50;;
38901;SDS011;24661;53.566;9.910;2023-07-30T13:09:38;8.27;;;2.27;;
38901;SDS011;24661;53.566;9.910;2023-07-30T13:12:03;6.80;;;2.20;;
38901;SDS011;24661;53.566;9.910;2023-07-30T13:14:29;4.93;;;1.67;;
38901;SDS011;24661;53.566;9.910;2023-07-30T13:16:55;5.30;;;1.27;;
38901;SDS011;24661;53.566;9.910;2023-07-30T13:19:20;6.83;;;2.00;;
38901;SDS011;24661;53.566;9.910;2023-07-30T13:21:46;6.33;;;1.77;;
38901;SDS011;24661;53.566;9.910;2023-07-30T13:24:11;8.60;;;2.00;;
38901;SDS011;24661;53.566;9.910;2023-07-30T13:26:37;4.77;;;2.03;;
38901;SDS011;24661;53.566;9.910;2023-07-30T13:29:03;6.60;;;2.10;;
38901;SDS011;24661;53.566;9.910;2023-07-30T13:31:29;7.53;;;2.77;;
38901;SDS011;24661;53.566;9.910;2023-07-30T13:33:55;3.70;;;2.03;;
38901;SDS011;24661;53.566;9.910;2023-07-30T13:36:21;6.67;;;2.27;;
38901;SDS011;24661;53.566;9.910;2023-07-30T13:38:46;5.43;;;2.03;;
38901;SDS011;24661;53.566;9.910;2023-07-30T13:41:12;6.43;;;1.93;;
38901;SDS011;24661;53.566;9.910;2023-07-30T13:43:38;6.20;;;2.03;;
38901;SDS011;24661;53.566;9.910;2023-07-30T13:46:04;6.30;;;2.40;;
38901;SDS011;24661;53.566;9.910;2023-07-30T13:48:30;4.63;;;2.20;;
38901;SDS011;24661;53.566;9.910;2023-07-30T13:50:55;6.50;;;2.57;;
38901;SDS011;24661;53.566;9.910;2023-07-30T13:53:21;6.17;;;2.00;;
38901;SDS011;24661;53.566;9.910;2023-07-30T13:55:46;7.17;;;2.10;;
38901;SDS011;24661;53.566;9.910;2023-07-30T13:58:12;4.43;;;2.03;;
38901;SDS011;24661;53.566;9.910;2023-07-30T14:00:40;9.17;;;2.63;;
38901;SDS011;24661;53.566;9.910;2023-07-30T14:03:07;4.93;;;1.60;;
38901;SDS011;24661;53.566;9.910;2023-07-30T14:05:33;6.13;;;2.63;;
38901;SDS011;24661;53.566;9.910;2023-07-30T14:07:59;5.37;;;2.57;;
38901;SDS011;24661;53.566;9.910;2023-07-30T14:10:25;3.70;;;1.87;;
38901;SDS011;24661;53.566;9.910;2023-07-30T14:12:50;5.03;;;1.80;;
38901;SDS011;24661;53.566;9.910;2023-07-30T14:15:16;1.97;;;1.40;;
38901;SDS011;24661;53.566;9.910;2023-07-30T14:17:42;3.63;;;1.37;;
38901;SDS011;24661;53.566;9.910;2023-07-30T14:20:08;3.97;;;1.90;;
38901;SDS011;24661;53.566;9.910;2023-07-30T14:22:34;5.27;;;2.00;;
38901;SDS011;24661;53.566;9.910;2023-07-30T14:25:02;5.07;;;1.93;;
38901;SDS011;24661;53.566;9.910;2023-07-30T14:27:28;6.17;;;1.80;;
38901;SDS011;24661;53.566;9.910;2023-07-30T14:29:53;5.97;;;1.70;;
38901;SDS011;24661;53.566;9.910;2023-07-30T14:32:20;4.63;;;1.50;;
38901;SDS011;24661;53.566;9.910;2023-07-30T14:34:46;3.17;;;2.27;;
38901;SDS011;24661;53.566;9.910;2023-07-30T14:37:12;2.80;;;1.40;;
38901;SDS011;24661;53.566;9.910;2023-07-30T14:39:37;3.53;;;2.03;;
38901;SDS011;24661;53.566;9.910;2023-07-30T14:42:05;5.87;;;1.83;;